sensor_id;sensor_type;location;lat;lon;timestamp;P1;durP1;ratioP1;P2;durP2;ratioP2
77591;SDS011;66891;46.884;17.436;2023-06-22T00:01:22;18.23;;;11.27;;
77591;SDS011;66891;46.884;17.436;2023-06-22T00:03:50;17.90;;;11.13;;
77591;SDS011;66891;46.884;17.436;2023-06-22T00:06:17;18.77;;;10.38;;
77591;SDS011;66891;46.884;17.436;2023-06-22T00:08:45;18.10;;;10.82;;
77591;SDS011;66891;46.884;17.436;2023-06-22T00:11:12;16.48;;;9.68;;
77591;SDS011;66891;46.884;17.436;2023-06-22T00:13:41;17.23;;;9.50;;
77591;SDS011;66891;46.884;17.436;2023-06-22T00:16:08;15.85;;;9.05;;
77591;SDS011;66891;46.884;17.436;2023-06-22T00:18:35;15.15;;;8.63;;
77591;SDS011;66891;46.884;17.436;2023-06-22T00:21:03;15.35;;;8.02;;
77591;SDS011;66891;46.884;17.436;2023-06-22T00:23:31;17.65;;;8.75;;
77591;SDS011;66891;46.884;17.436;2023-06-22T00:26:01;17.03;;;8.47;;
77591;SDS011;66891;46.884;17.436;2023-06-22T00:28:29;18.20;;;7.93;;
77591;SDS011;66891;46.884;17.436;2023-06-22T00:30:58;16.23;;;7.53;;
77591;SDS011;66891;46.884;17.436;2023-06-22T00:33:27;15.90;;;8.15;;
77591;SDS011;66891;46.884;17.436;2023-06-22T00:35:55;16.13;;;7.68;;
77591;SDS011;66891;46.884;17.436;2023-06-22T00:38:23;15.40;;;8.03;;
77591;SDS011;66891;46.884;17.436;2023-06-22T00:40:50;15.00;;;8.05;;
77591;SDS011;66891;46.884;17.436;2023-06-22T00:43:17;16.30;;;8.68;;
77591;SDS011;66891;46.884;17.436;2023-06-22T00:45:45;18.65;;;8.68;;
77591;SDS011;66891;46.884;17.436;2023-06-22T00:48:14;17.60;;;9.25;;
77591;SDS011;66891;46.884;17.436;2023-06-22T00:50:42;17.73;;;10.90;;
77591;SDS011;66891;46.884;17.436;2023-06-22T00:53:09;15.05;;;10.13;;
77591;SDS011;66891;46.884;17.436;2023-06-22T00:55:38;18.05;;;10.98;;
77591;SDS011;66891;46.884;17.436;2023-06-22T00:58:10;18.42;;;11.52;;
77591;SDS011;66891;46.884;17.436;2023-06-22T01:00:38;17.88;;;11.82;;
77591;SDS011;66891;46.884;17.436;2023-06-22T01:03:07;20.30;;;12.57;;
77591;SDS011;66891;46.884;17.436;2023-06-22T01:05:39;18.58;;;11.77;;
77591;SDS011;66891;46.884;17.436;2023-06-22T01:08:16;21.38;;;11.85;;
77591;SDS011;66891;46.884;17.436;2023-06-22T01:10:51;20.17;;;12.32;;
77591;SDS011;66891;46.884;17.436;2023-06-22T01:13:26;18.35;;;11.40;;
77591;SDS011;66891;46.884;17.436;2023-06-22T01:15:58;21.03;;;11.20;;
77591;SDS011;66891;46.884;17.436;2023-06-22T01:18:29;19.58;;;12.38;;
77591;SDS011;66891;46.884;17.436;2023-06-22T01:21:00;17.77;;;11.55;;
77591;SDS011;66891;46.884;17.436;2023-06-22T01:23:42;18.05;;;10.52;;
77591;SDS011;66891;46.884;17.436;2023-06-22T01:26:18;17.73;;;9.43;;
77591;SDS011;66891;46.884;17.436;2023-06-22T01:28:51;16.73;;;9.73;;
77591;SDS011;66891;46.884;17.436;2023-06-22T01:31:23;16.13;;;8.60;;
77591;SDS011;66891;46.884;17.436;2023-06-22T01:33:53;18.15;;;9.48;;
77591;SDS011;66891;46.884;17.436;2023-06-22T01:36:22;15.40;;;9.63;;
77591;SDS011;66891;46.884;17.436;2023-06-22T01:38:51;18.63;;;9.85;;
77591;SDS011;66891;46.884;17.436;2023-06-22T01:41:19;17.50;;;10.53;;
77591;SDS011;66891;46.884;17.436;2023-06-22T01:43:47;21.35;;;11.65;;
77591;SDS011;66891;46.884;17.436;2023-06-22T01:46:17;16.92;;;10.88;;
77591;SDS011;66891;46.884;17.436;2023-06-22T01:48:46;20.35;;;12.05;;
77591;SDS011;66891;46.884;17.436;2023-06-22T01:51:14;20.00;;;12.57;;
77591;SDS011;66891;46.884;17.436;2023-06-22T01:53:41;20.37;;;12.47;;
77591;SDS011;66891;46.884;17.436;2023-06-22T01:56:09;22.73;;;12.57;;
77591;SDS011;66891;46.884;17.436;2023-06-22T01:58:37;19.60;;;12.07;;
77591;SDS011;66891;46.884;17.436;2023-06-22T02:01:14;21.02;;;12.30;;
77591;SDS011;66891;46.884;17.436;2023-06-22T02:03:47;21.52;;;11.98;;
77591;SDS011;66891;46.884;17.436;2023-06-22T02:06:21;20.80;;;12.40;;
77591;SDS011;66891;46.884;17.436;2023-06-22T02:08:55;19.33;;;11.13;;
77591;SDS011;66891;46.884;17.436;2023-06-22T02:11:26;19.05;;;10.57;;
77591;SDS011;66891;46.884;17.436;2023-06-22T02:13:55;19.15;;;9.90;;
77591;SDS011;66891;46.884;17.436;2023-06-22T02:16:25;17.98;;;8.93;;
77591;SDS011;66891;46.884;17.436;2023-06-22T02:18:57;18.33;;;8.47;;
77591;SDS011;66891;46.884;17.436;2023-06-22T02:21:30;18.75;;;8.85;;
77591;SDS011;66891;46.884;17.436;2023-06-22T02:23:58;16.25;;;7.50;;
77591;SDS011;66891;46.884;17.436;2023-06-22T02:26:25;21.85;;;7.88;;
77591;SDS011;66891;46.884;17.436;2023-06-22T02:28:53;17.00;;;8.20;;
77591;SDS011;66891;46.884;17.436;2023-06-22T02:31:20;17.20;;;7.17;;
77591;SDS011;66891;46.884;17.436;2023-06-22T02:33:49;17.60;;;7.78;;
77591;SDS011;66891;46.884;17.436;2023-06-22T02:36:17;19.65;;;8.27;;
77591;SDS011;66891;46.884;17.436;2023-06-22T02:38:49;16.30;;;7.80;;
77591;SDS011;66891;46.884;17.436;2023-06-22T02:41:17;13.77;;;6.18;;
77591;SDS011;66891;46.884;17.436;2023-06-22T02:43:48;16.23;;;7.37;;
77591;SDS011;66891;46.884;17.436;2023-06-22T02:46:15;15.77;;;6.97;;
77591;SDS011;66891;46.884;17.436;2023-06-22T02:48:43;15.57;;;6.78;;
77591;SDS011;66891;46.884;17.436;2023-06-22T02:51:14;18.35;;;6.72;;
77591;SDS011;66891;46.884;17.436;2023-06-22T02:53:41;16.17;;;6.50;;
77591;SDS011;66891;46.884;17.436;2023-06-22T02:56:12;16.17;;;6.40;;
77591;SDS011;66891;46.884;17.436;2023-06-22T02:58:39;15.48;;;5.75;;
77591;SDS011;66891;46.884;17.436;2023-06-22T03:01:07;14.90;;;6.20;;
77591;SDS011;66891;46.884;17.436;2023-06-22T03:03:34;16.67;;;6.57;;
77591;SDS011;66891;46.884;17.436;2023-06-22T03:06:01;16.60;;;6.38;;
77591;SDS011;66891;46.884;17.436;2023-06-22T03:08:30;15.83;;;6.13;;
77591;SDS011;66891;46.884;17.436;2023-06-22T03:10:57;13.70;;;5.95;;
77591;SDS011;66891;46.884;17.436;2023-06-22T03:13:25;16.00;;;6.82;;
77591;SDS011;66891;46.884;17.436;2023-06-22T03:15:54;18.60;;;5.97;;
77591;SDS011;66891;46.884;17.436;2023-06-22T03:18:21;15.25;;;5.57;;
77591;SDS011;66891;46.884;17.436;2023-06-22T03:20:49;14.23;;;5.47;;
77591;SDS011;66891;46.884;17.436;2023-06-22T03:23:16;11.45;;;5.38;;
77591;SDS011;66891;46.884;17.436;2023-06-22T03:25:45;14.75;;;5.78;;
77591;SDS011;66891;46.884;17.436;2023-06-22T03:28:13;13.80;;;5.25;;
77591;SDS011;66891;46.884;17.436;2023-06-22T03:30:40;14.75;;;5.88;;
77591;SDS011;66891;46.884;17.436;2023-06-22T03:33:08;14.90;;;5.80;;
77591;SDS011;66891;46.884;17.436;2023-06-22T03:35:35;14.90;;;6.13;;
77591;SDS011;66891;46.884;17.436;2023-06-22T03:38:02;15.30;;;6.45;;
77591;SDS011;66891;46.884;17.436;2023-06-22T03:40:30;13.30;;;6.55;;
77591;SDS011;66891;46.884;17.436;2023-06-22T03:42:59;17.60;;;6.72;;
77591;SDS011;66891;46.884;17.436;2023-06-22T03:45:26;16.37;;;6.90;;
77591;SDS011;66891;46.884;17.436;2023-06-22T03:47:54;17.77;;;7.28;;
77591;SDS011;66891;46.884;17.436;2023-06-22T03:50:21;18.85;;;7.20;;
77591;SDS011;66891;46.884;17.436;2023-06-22T03:52:48;15.95;;;7.05;;
77591;SDS011;66891;46.884;17.436;2023-06-22T03:55:19;14.85;;;7.28;;
77591;SDS011;66891;46.884;17.436;2023-06-22T03:57:46;18.20;;;6.90;;
77591;SDS011;66891;46.884;17.436;2023-06-22T04:00:15;14.07;;;6.63;;
77591;SDS011;66891;46.884;17.436;2023-06-22T04:02:42;17.05;;;6.50;;
77591;SDS011;66891;46.884;17.436;2023-06-22T04:05:10;15.38;;;6.80;;
77591;SDS011;66891;46.884;17.436;2023-06-22T04:07:37;15.88;;;6.28;;
77591;SDS011;66891;46.884;17.436;2023-06-22T04:10:06;16.17;;;6.50;;
77591;SDS011;66891;46.884;17.436;2023-06-22T04:12:37;15.55;;;6.10;;
77591;SDS011;66891;46.884;17.436;2023-06-22T04:15:05;13.55;;;5.88;;
77591;SDS011;66891;46.884;17.436;2023-06-22T04:17:34;13.30;;;6.70;;
77591;SDS011;66891;46.884;17.436;2023-06-22T04:20:01;15.05;;;5.97;;
77591;SDS011;66891;46.884;17.436;2023-06-22T04:22:30;14.40;;;6.30;;
77591;SDS011;66891;46.884;17.436;2023-06-22T04:24:58;14.75;;;6.20;;
77591;SDS011;66891;46.884;17.436;2023-06-22T04:27:25;12.45;;;5.10;;
77591;SDS011;66891;46.884;17.436;2023-06-22T04:29:52;14.60;;;5.80;;
77591;SDS011;66891;46.884;17.436;2023-06-22T04:32:20;16.08;;;5.28;;
77591;SDS011;66891;46.884;17.436;2023-06-22T04:34:48;15.33;;;6.03;;
77591;SDS011;66891;46.884;17.436;2023-06-22T04:37:16;11.60;;;5.50;;
77591;SDS011;66891;46.884;17.436;2023-06-22T04:39:43;14.20;;;6.18;;
77591;SDS011;66891;46.884;17.436;2023-06-22T04:42:11;15.75;;;6.80;;
77591;SDS011;66891;46.884;17.436;2023-06-22T04:44:39;16.20;;;6.75;;
77591;SDS011;66891;46.884;17.436;2023-06-22T04:47:06;14.80;;;6.67;;
77591;SDS011;66891;46.884;17.436;2023-06-22T04:49:35;16.15;;;7.35;;
77591;SDS011;66891;46.884;17.436;2023-06-22T04:52:09;16.27;;;6.95;;
77591;SDS011;66891;46.884;17.436;2023-06-22T04:54:37;16.77;;;7.35;;
77591;SDS011;66891;46.884;17.436;2023-06-22T04:57:06;17.70;;;7.50;;
77591;SDS011;66891;46.884;17.436;2023-06-22T04:59:37;14.77;;;7.37;;
77591;SDS011;66891;46.884;17.436;2023-06-22T05:02:09;17.20;;;7.75;;
77591;SDS011;66891;46.884;17.436;2023-06-22T05:04:36;15.77;;;7.72;;
77591;SDS011;66891;46.884;17.436;2023-06-22T05:07:09;15.20;;;7.00;;
77591;SDS011;66891;46.884;17.436;2023-06-22T05:09:36;17.40;;;7.45;;
77591;SDS011;66891;46.884;17.436;2023-06-22T05:12:04;15.03;;;7.50;;
77591;SDS011;66891;46.884;17.436;2023-06-22T05:14:36;15.07;;;7.35;;
77591;SDS011;66891;46.884;17.436;2023-06-22T05:17:03;15.40;;;7.05;;
77591;SDS011;66891;46.884;17.436;2023-06-22T05:19:31;16.33;;;7.53;;
77591;SDS011;66891;46.884;17.436;2023-06-22T05:22:01;14.57;;;7.32;;
77591;SDS011;66891;46.884;17.436;2023-06-22T05:24:30;17.57;;;8.07;;
77591;SDS011;66891;46.884;17.436;2023-06-22T05:26:57;14.43;;;7.40;;
77591;SDS011;66891;46.884;17.436;2023-06-22T05:29:24;16.33;;;8.35;;
77591;SDS011;66891;46.884;17.436;2023-06-22T05:31:53;15.23;;;8.30;;
77591;SDS011;66891;46.884;17.436;2023-06-22T05:34:20;19.60;;;8.60;;
77591;SDS011;66891;46.884;17.436;2023-06-22T05:36:48;16.30;;;8.37;;
77591;SDS011;66891;46.884;17.436;2023-06-22T05:39:15;19.63;;;8.63;;
77591;SDS011;66891;46.884;17.436;2023-06-22T05:41:46;18.58;;;8.13;;
77591;SDS011;66891;46.884;17.436;2023-06-22T05:44:13;18.75;;;9.45;;
77591;SDS011;66891;46.884;17.436;2023-06-22T05:46:40;22.58;;;9.32;;
77591;SDS011;66891;46.884;17.436;2023-06-22T05:49:16;21.07;;;9.10;;
77591;SDS011;66891;46.884;17.436;2023-06-22T05:51:43;18.52;;;9.23;;
77591;SDS011;66891;46.884;17.436;2023-06-22T05:54:11;19.55;;;8.38;;
77591;SDS011;66891;46.884;17.436;2023-06-22T05:56:40;16.23;;;8.13;;
77591;SDS011;66891;46.884;17.436;2023-06-22T05:59:09;15.20;;;9.23;;
77591;SDS011;66891;46.884;17.436;2023-06-22T06:01:36;20.33;;;8.90;;
77591;SDS011;66891;46.884;17.436;2023-06-22T06:04:03;17.63;;;9.70;;
77591;SDS011;66891;46.884;17.436;2023-06-22T06:06:31;15.15;;;8.55;;
77591;SDS011;66891;46.884;17.436;2023-06-22T06:08:58;16.40;;;8.40;;
77591;SDS011;66891;46.884;17.436;2023-06-22T06:11:26;14.45;;;7.35;;
77591;SDS011;66891;46.884;17.436;2023-06-22T06:13:54;16.00;;;8.87;;
77591;SDS011;66891;46.884;17.436;2023-06-22T06:16:22;16.67;;;7.90;;
77591;SDS011;66891;46.884;17.436;2023-06-22T06:18:50;19.30;;;9.10;;
77591;SDS011;66891;46.884;17.436;2023-06-22T06:21:20;18.63;;;8.95;;
77591;SDS011;66891;46.884;17.436;2023-06-22T06:23:47;19.88;;;8.98;;
77591;SDS011;66891;46.884;17.436;2023-06-22T06:26:14;17.20;;;8.10;;
77591;SDS011;66891;46.884;17.436;2023-06-22T06:28:43;18.35;;;9.27;;
77591;SDS011;66891;46.884;17.436;2023-06-22T06:31:10;21.38;;;9.70;;
77591;SDS011;66891;46.884;17.436;2023-06-22T06:33:40;17.83;;;8.98;;
77591;SDS011;66891;46.884;17.436;2023-06-22T06:36:08;16.25;;;9.27;;
77591;SDS011;66891;46.884;17.436;2023-06-22T06:38:35;16.97;;;9.70;;
77591;SDS011;66891;46.884;17.436;2023-06-22T06:41:02;16.70;;;10.18;;
77591;SDS011;66891;46.884;17.436;2023-06-22T06:43:29;19.40;;;10.40;;
77591;SDS011;66891;46.884;17.436;2023-06-22T06:45:57;21.40;;;13.60;;
77591;SDS011;66891;46.884;17.436;2023-06-22T06:48:24;17.38;;;9.73;;
77591;SDS011;66891;46.884;17.436;2023-06-22T06:50:53;21.80;;;9.93;;
77591;SDS011;66891;46.884;17.436;2023-06-22T06:53:20;20.60;;;9.85;;
77591;SDS011;66891;46.884;17.436;2023-06-22T06:55:47;20.35;;;10.25;;
77591;SDS011;66891;46.884;17.436;2023-06-22T06:58:15;18.35;;;11.10;;
77591;SDS011;66891;46.884;17.436;2023-06-22T07:00:43;14.88;;;9.43;;
77591;SDS011;66891;46.884;17.436;2023-06-22T07:03:10;20.97;;;10.77;;
77591;SDS011;66891;46.884;17.436;2023-06-22T07:05:38;16.80;;;9.20;;
77591;SDS011;66891;46.884;17.436;2023-06-22T07:08:07;18.90;;;10.48;;
77591;SDS011;66891;46.884;17.436;2023-06-22T07:10:34;19.45;;;11.07;;
77591;SDS011;66891;46.884;17.436;2023-06-22T07:13:01;16.48;;;11.60;;
77591;SDS011;66891;46.884;17.436;2023-06-22T07:15:29;17.33;;;10.37;;
77591;SDS011;66891;46.884;17.436;2023-06-22T07:17:56;16.70;;;11.30;;
77591;SDS011;66891;46.884;17.436;2023-06-22T07:20:24;20.30;;;12.30;;
77591;SDS011;66891;46.884;17.436;2023-06-22T07:22:51;17.08;;;11.13;;
77591;SDS011;66891;46.884;17.436;2023-06-22T07:25:20;16.92;;;11.88;;
77591;SDS011;66891;46.884;17.436;2023-06-22T07:27:56;19.33;;;10.70;;
77591;SDS011;66891;46.884;17.436;2023-06-22T07:30:25;15.48;;;11.30;;
77591;SDS011;66891;46.884;17.436;2023-06-22T07:32:54;18.30;;;11.13;;
77591;SDS011;66891;46.884;17.436;2023-06-22T07:35:22;20.00;;;11.70;;
77591;SDS011;66891;46.884;17.436;2023-06-22T07:37:49;18.45;;;11.27;;
77591;SDS011;66891;46.884;17.436;2023-06-22T07:40:16;18.07;;;10.17;;
77591;SDS011;66891;46.884;17.436;2023-06-22T07:42:45;20.20;;;11.15;;
77591;SDS011;66891;46.884;17.436;2023-06-22T07:45:14;19.83;;;11.65;;
77591;SDS011;66891;46.884;17.436;2023-06-22T07:47:42;18.35;;;11.30;;
77591;SDS011;66891;46.884;17.436;2023-06-22T07:50:10;24.13;;;13.02;;
77591;SDS011;66891;46.884;17.436;2023-06-22T07:52:37;36.80;;;15.80;;
77591;SDS011;66891;46.884;17.436;2023-06-22T07:55:05;28.50;;;14.43;;
77591;SDS011;66891;46.884;17.436;2023-06-22T07:57:32;18.55;;;11.88;;
77591;SDS011;66891;46.884;17.436;2023-06-22T08:00:03;28.90;;;13.80;;
77591;SDS011;66891;46.884;17.436;2023-06-22T08:02:39;20.58;;;12.45;;
77591;SDS011;66891;46.884;17.436;2023-06-22T08:05:07;18.73;;;11.77;;
77591;SDS011;66891;46.884;17.436;2023-06-22T08:07:46;18.05;;;12.55;;
77591;SDS011;66891;46.884;17.436;2023-06-22T08:10:15;24.58;;;13.80;;
77591;SDS011;66891;46.884;17.436;2023-06-22T08:12:42;19.13;;;11.75;;
77591;SDS011;66891;46.884;17.436;2023-06-22T08:15:11;21.23;;;12.32;;
77591;SDS011;66891;46.884;17.436;2023-06-22T08:17:39;18.67;;;11.50;;
77591;SDS011;66891;46.884;17.436;2023-06-22T08:20:07;17.42;;;11.93;;
77591;SDS011;66891;46.884;17.436;2023-06-22T08:22:39;18.80;;;12.43;;
77591;SDS011;66891;46.884;17.436;2023-06-22T08:25:07;17.50;;;11.77;;
77591;SDS011;66891;46.884;17.436;2023-06-22T08:27:35;21.00;;;12.88;;
77591;SDS011;66891;46.884;17.436;2023-06-22T08:30:03;17.50;;;12.57;;
77591;SDS011;66891;46.884;17.436;2023-06-22T08:32:33;20.35;;;13.45;;
77591;SDS011;66891;46.884;17.436;2023-06-22T08:35:00;20.17;;;12.35;;
77591;SDS011;66891;46.884;17.436;2023-06-22T08:37:28;16.45;;;11.55;;
77591;SDS011;66891;46.884;17.436;2023-06-22T08:39:58;16.70;;;11.98;;
77591;SDS011;66891;46.884;17.436;2023-06-22T08:42:28;19.60;;;13.33;;
77591;SDS011;66891;46.884;17.436;2023-06-22T08:44:55;19.08;;;11.95;;
77591;SDS011;66891;46.884;17.436;2023-06-22T08:47:23;18.42;;;12.50;;
77591;SDS011;66891;46.884;17.436;2023-06-22T08:49:51;19.88;;;12.65;;
77591;SDS011;66891;46.884;17.436;2023-06-22T08:52:19;16.65;;;11.43;;
77591;SDS011;66891;46.884;17.436;2023-06-22T08:54:46;20.30;;;12.57;;
77591;SDS011;66891;46.884;17.436;2023-06-22T08:57:14;18.05;;;11.50;;
77591;SDS011;66891;46.884;17.436;2023-06-22T08:59:42;18.10;;;11.32;;
77591;SDS011;66891;46.884;17.436;2023-06-22T09:02:10;19.08;;;12.07;;
77591;SDS011;66891;46.884;17.436;2023-06-22T09:04:37;19.25;;;12.02;;
77591;SDS011;66891;46.884;17.436;2023-06-22T09:07:06;21.07;;;12.87;;
77591;SDS011;66891;46.884;17.436;2023-06-22T09:09:34;18.17;;;12.00;;
77591;SDS011;66891;46.884;17.436;2023-06-22T09:12:01;18.38;;;11.13;;
77591;SDS011;66891;46.884;17.436;2023-06-22T09:14:29;18.48;;;11.80;;
77591;SDS011;66891;46.884;17.436;2023-06-22T09:16:56;19.25;;;12.57;;
77591;SDS011;66891;46.884;17.436;2023-06-22T09:19:23;17.37;;;11.47;;
77591;SDS011;66891;46.884;17.436;2023-06-22T09:21:50;16.33;;;11.60;;
77591;SDS011;66891;46.884;17.436;2023-06-22T09:24:20;20.02;;;11.38;;
77591;SDS011;66891;46.884;17.436;2023-06-22T09:26:47;17.27;;;10.48;;
77591;SDS011;66891;46.884;17.436;2023-06-22T09:29:14;19.60;;;11.48;;
77591;SDS011;66891;46.884;17.436;2023-06-22T09:31:41;20.30;;;12.00;;
77591;SDS011;66891;46.884;17.436;2023-06-22T09:34:09;18.13;;;12.00;;
77591;SDS011;66891;46.884;17.436;2023-06-22T09:36:36;19.08;;;12.45;;
77591;SDS011;66891;46.884;17.436;2023-06-22T09:39:06;19.83;;;12.30;;
77591;SDS011;66891;46.884;17.436;2023-06-22T09:41:35;16.42;;;11.30;;
77591;SDS011;66891;46.884;17.436;2023-06-22T09:44:02;15.30;;;10.90;;
77591;SDS011;66891;46.884;17.436;2023-06-22T09:46:30;18.17;;;11.50;;
77591;SDS011;66891;46.884;17.436;2023-06-22T09:48:57;16.45;;;11.43;;
77591;SDS011;66891;46.884;17.436;2023-06-22T09:51:24;17.35;;;12.20;;
77591;SDS011;66891;46.884;17.436;2023-06-22T09:53:52;16.20;;;10.55;;
77591;SDS011;66891;46.884;17.436;2023-06-22T09:56:20;17.17;;;11.60;;
77591;SDS011;66891;46.884;17.436;2023-06-22T09:58:49;21.50;;;12.40;;
77591;SDS011;66891;46.884;17.436;2023-06-22T10:01:21;17.65;;;12.00;;
77591;SDS011;66891;46.884;17.436;2023-06-22T10:03:49;18.98;;;12.40;;
77591;SDS011;66891;46.884;17.436;2023-06-22T10:06:17;17.95;;;13.20;;
77591;SDS011;66891;46.884;17.436;2023-06-22T10:08:44;20.53;;;12.93;;
77591;SDS011;66891;46.884;17.436;2023-06-22T10:11:11;18.42;;;11.95;;
77591;SDS011;66891;46.884;17.436;2023-06-22T10:13:38;18.02;;;12.63;;
77591;SDS011;66891;46.884;17.436;2023-06-22T10:16:07;18.55;;;13.05;;
77591;SDS011;66891;46.884;17.436;2023-06-22T10:18:34;18.60;;;12.77;;
77591;SDS011;66891;46.884;17.436;2023-06-22T10:21:02;19.97;;;13.03;;
77591;SDS011;66891;46.884;17.436;2023-06-22T10:23:29;17.83;;;12.18;;
77591;SDS011;66891;46.884;17.436;2023-06-22T10:25:57;17.10;;;11.80;;
77591;SDS011;66891;46.884;17.436;2023-06-22T10:28:25;19.52;;;12.10;;
77591;SDS011;66891;46.884;17.436;2023-06-22T10:30:52;17.42;;;12.35;;
77591;SDS011;66891;46.884;17.436;2023-06-22T10:33:21;16.67;;;12.23;;
77591;SDS011;66891;46.884;17.436;2023-06-22T10:35:48;17.38;;;11.93;;
77591;SDS011;66891;46.884;17.436;2023-06-22T10:38:15;20.38;;;11.45;;
77591;SDS011;66891;46.884;17.436;2023-06-22T10:40:43;19.25;;;11.98;;
77591;SDS011;66891;46.884;17.436;2023-06-22T10:43:10;16.40;;;12.15;;
77591;SDS011;66891;46.884;17.436;2023-06-22T10:45:38;16.07;;;11.90;;
77591;SDS011;66891;46.884;17.436;2023-06-22T10:48:06;14.23;;;11.30;;
77591;SDS011;66891;46.884;17.436;2023-06-22T10:50:35;16.92;;;11.57;;
77591;SDS011;66891;46.884;17.436;2023-06-22T10:53:02;19.92;;;11.73;;
77591;SDS011;66891;46.884;17.436;2023-06-22T10:55:29;17.02;;;12.13;;
77591;SDS011;66891;46.884;17.436;2023-06-22T10:58:17;16.50;;;11.37;;
77591;SDS011;66891;46.884;17.436;2023-06-22T11:00:45;18.05;;;12.05;;
77591;SDS011;66891;46.884;17.436;2023-06-22T11:03:13;19.00;;;12.48;;
77591;SDS011;66891;46.884;17.436;2023-06-22T11:05:42;18.65;;;12.20;;
77591;SDS011;66891;46.884;17.436;2023-06-22T11:08:10;16.10;;;11.23;;
77591;SDS011;66891;46.884;17.436;2023-06-22T11:10:38;15.50;;;11.67;;
77591;SDS011;66891;46.884;17.436;2023-06-22T11:13:05;16.65;;;12.77;;
77591;SDS011;66891;46.884;17.436;2023-06-22T11:15:38;18.95;;;12.35;;
77591;SDS011;66891;46.884;17.436;2023-06-22T11:18:06;21.90;;;13.25;;
77591;SDS011;66891;46.884;17.436;2023-06-22T11:20:34;17.10;;;12.32;;
77591;SDS011;66891;46.884;17.436;2023-06-22T11:23:07;16.93;;;12.53;;
77591;SDS011;66891;46.884;17.436;2023-06-22T11:25:34;17.75;;;12.35;;
77591;SDS011;66891;46.884;17.436;2023-06-22T11:28:02;18.33;;;12.48;;
77591;SDS011;66891;46.884;17.436;2023-06-22T11:30:30;17.38;;;13.07;;
77591;SDS011;66891;46.884;17.436;2023-06-22T11:32:58;21.75;;;13.82;;
77591;SDS011;66891;46.884;17.436;2023-06-22T11:35:26;18.43;;;12.23;;
77591;SDS011;66891;46.884;17.436;2023-06-22T11:37:54;16.60;;;11.32;;
77591;SDS011;66891;46.884;17.436;2023-06-22T11:40:24;24.00;;;12.70;;
77591;SDS011;66891;46.884;17.436;2023-06-22T11:42:52;19.40;;;12.65;;
77591;SDS011;66891;46.884;17.436;2023-06-22T11:45:19;19.52;;;11.73;;
77591;SDS011;66891;46.884;17.436;2023-06-22T11:47:47;15.37;;;11.77;;
77591;SDS011;66891;46.884;17.436;2023-06-22T11:50:14;14.80;;;12.40;;
77591;SDS011;66891;46.884;17.436;2023-06-22T11:52:41;19.40;;;11.93;;
77591;SDS011;66891;46.884;17.436;2023-06-22T11:55:09;14.95;;;11.82;;
77591;SDS011;66891;46.884;17.436;2023-06-22T11:57:38;19.85;;;12.20;;
77591;SDS011;66891;46.884;17.436;2023-06-22T12:00:19;15.73;;;11.40;;
77591;SDS011;66891;46.884;17.436;2023-06-22T12:02:47;17.83;;;12.70;;
77591;SDS011;66891;46.884;17.436;2023-06-22T12:05:14;16.13;;;11.75;;
77591;SDS011;66891;46.884;17.436;2023-06-22T12:07:42;17.70;;;12.18;;
77591;SDS011;66891;46.884;17.436;2023-06-22T12:10:09;15.82;;;12.13;;
77591;SDS011;66891;46.884;17.436;2023-06-22T12:12:38;17.10;;;12.20;;
77591;SDS011;66891;46.884;17.436;2023-06-22T12:15:06;16.95;;;12.45;;
77591;SDS011;66891;46.884;17.436;2023-06-22T12:17:34;16.15;;;12.70;;
77591;SDS011;66891;46.884;17.436;2023-06-22T12:20:01;15.35;;;13.00;;
77591;SDS011;66891;46.884;17.436;2023-06-22T12:22:32;16.30;;;12.40;;
77591;SDS011;66891;46.884;17.436;2023-06-22T12:24:59;15.43;;;11.63;;
77591;SDS011;66891;46.884;17.436;2023-06-22T12:27:27;16.98;;;12.63;;
77591;SDS011;66891;46.884;17.436;2023-06-22T12:29:56;16.10;;;11.57;;
77591;SDS011;66891;46.884;17.436;2023-06-22T12:32:23;15.20;;;12.65;;
77591;SDS011;66891;46.884;17.436;2023-06-22T12:34:52;14.50;;;11.90;;
77591;SDS011;66891;46.884;17.436;2023-06-22T12:37:19;15.50;;;11.00;;
77591;SDS011;66891;46.884;17.436;2023-06-22T12:39:47;14.80;;;11.55;;
77591;SDS011;66891;46.884;17.436;2023-06-22T12:42:15;13.77;;;10.77;;
77591;SDS011;66891;46.884;17.436;2023-06-22T12:44:42;16.55;;;10.85;;
77591;SDS011;66891;46.884;17.436;2023-06-22T12:47:11;13.77;;;10.85;;
77591;SDS011;66891;46.884;17.436;2023-06-22T12:49:39;12.82;;;10.73;;
77591;SDS011;66891;46.884;17.436;2023-06-22T12:52:08;14.70;;;11.63;;
77591;SDS011;66891;46.884;17.436;2023-06-22T12:54:39;15.15;;;10.55;;
77591;SDS011;66891;46.884;17.436;2023-06-22T12:57:20;15.57;;;12.27;;
77591;SDS011;66891;46.884;17.436;2023-06-22T12:59:48;14.82;;;13.20;;
77591;SDS011;66891;46.884;17.436;2023-06-22T13:02:17;17.73;;;13.07;;
77591;SDS011;66891;46.884;17.436;2023-06-22T13:04:45;17.60;;;13.60;;
77591;SDS011;66891;46.884;17.436;2023-06-22T13:07:13;14.57;;;12.43;;
77591;SDS011;66891;46.884;17.436;2023-06-22T13:09:49;19.05;;;12.90;;
77591;SDS011;66891;46.884;17.436;2023-06-22T13:12:19;18.30;;;13.07;;
77591;SDS011;66891;46.884;17.436;2023-06-22T13:14:47;15.68;;;13.35;;
77591;SDS011;66891;46.884;17.436;2023-06-22T13:17:15;16.75;;;13.27;;
77591;SDS011;66891;46.884;17.436;2023-06-22T13:19:43;17.35;;;12.73;;
77591;SDS011;66891;46.884;17.436;2023-06-22T13:22:25;16.95;;;13.32;;
77591;SDS011;66891;46.884;17.436;2023-06-22T13:24:54;19.27;;;13.27;;
77591;SDS011;66891;46.884;17.436;2023-06-22T13:27:22;16.93;;;13.03;;
77591;SDS011;66891;46.884;17.436;2023-06-22T13:29:50;19.40;;;13.48;;
77591;SDS011;66891;46.884;17.436;2023-06-22T13:32:19;16.23;;;13.27;;
77591;SDS011;66891;46.884;17.436;2023-06-22T13:34:46;18.17;;;12.65;;
77591;SDS011;66891;46.884;17.436;2023-06-22T13:37:14;16.85;;;12.32;;
77591;SDS011;66891;46.884;17.436;2023-06-22T13:39:41;18.70;;;12.33;;
77591;SDS011;66891;46.884;17.436;2023-06-22T13:42:08;15.02;;;12.57;;
77591;SDS011;66891;46.884;17.436;2023-06-22T13:44:36;26.08;;;13.60;;
77591;SDS011;66891;46.884;17.436;2023-06-22T13:47:06;17.63;;;13.30;;
77591;SDS011;66891;46.884;17.436;2023-06-22T13:49:36;18.25;;;12.93;;
77591;SDS011;66891;46.884;17.436;2023-06-22T13:52:04;18.77;;;12.97;;
77591;SDS011;66891;46.884;17.436;2023-06-22T13:54:37;15.55;;;12.63;;
77591;SDS011;66891;46.884;17.436;2023-06-22T13:57:04;16.98;;;12.95;;
77591;SDS011;66891;46.884;17.436;2023-06-22T13:59:32;18.75;;;13.05;;
77591;SDS011;66891;46.884;17.436;2023-06-22T14:01:59;17.42;;;13.45;;
77591;SDS011;66891;46.884;17.436;2023-06-22T14:04:26;16.03;;;12.83;;
77591;SDS011;66891;46.884;17.436;2023-06-22T14:06:57;19.42;;;13.32;;
77591;SDS011;66891;46.884;17.436;2023-06-22T14:09:25;17.92;;;13.25;;
77591;SDS011;66891;46.884;17.436;2023-06-22T14:11:53;18.38;;;12.98;;
77591;SDS011;66891;46.884;17.436;2023-06-22T14:14:21;17.23;;;13.15;;
77591;SDS011;66891;46.884;17.436;2023-06-22T14:16:48;18.90;;;12.63;;
77591;SDS011;66891;46.884;17.436;2023-06-22T14:19:17;17.42;;;12.55;;
77591;SDS011;66891;46.884;17.436;2023-06-22T14:21:45;17.60;;;12.75;;